European Causeway — C6RG7 — position and weather

sailwx.info

Track history (hours):
 
Tides and Currents Weather Stations Pressure Air Temp Water Temp Dewpoint Dewpoint Depression Visibility Wind Speed Wind Dir Waves Ship Positions

European Causeway

Operator: P & O Irish Sea

Last reported at 2020-Jan-28 17:45 UTC. Time now 2020-Jan-28 18:58 UTC.
Position N 55°00' W 005°13'.

Length 145 m; draft 5.5 m.

Type: Passenger vessel. MMSI: 311027000.

Date/timePositionNaut miles runAvg speedWind from/ knotsBaromVisibWave heightAir tempDewpointWater temp
2020-Jan-28 17:45N 55°00' W 005°13'13 1.9
2020-Jan-28 11:00N 54°55' W 005°34'4 0.5
2020-Jan-28 04:20N 54°54' W 005°39'6 5.5
2020-Jan-28 03:20N 54°51' W 005°48'5 0.5
2020-Jan-27 17:51N 54°54' W 005°41'5 0.9
2020-Jan-27 12:27N 54°51' W 005°48'712.4
2020-Jan-27 11:54N 54°54' W 005°38'1417.1
2020-Jan-27 11:06N 55°00' W 005°16'20 4.0
2020-Jan-27 05:58N 54°51' W 005°48'22 4.7
2020-Jan-27 01:16N 55°00' W 005°13'22 7.7
2020-Jan-26 22:24N 54°51' W 005°48'0 0.0
2020-Jan-26 21:58N 54°51' W 005°48'711.5
2020-Jan-26 21:20N 54°55' W 005°37'14 3.9
2020-Jan-26 17:39N 54°60' W 005°14'21 9.9
2020-Jan-26 15:29N 54°51' W 005°48'1514.1
2020-Jan-26 14:26N 54°58' W 005°25'15 1.7
2020-Jan-26 05:30N 54°51' W 005°48'0 0.0
2020-Jan-25 22:09N 54°51' W 005°48'21 4.6
2020-Jan-25 17:41N 54°60' W 005°16'11 3.7
2020-Jan-25 14:46N 54°56' W 005°33'12 3.8
2020-Jan-25 11:42N 55°00' W 005°14'515.9
2020-Jan-25 11:22N 54°58' W 005°22'4 1.3
2020-Jan-25 08:00N 55°00' W 005°16'20 4.5
2020-Jan-25 03:28N 54°51' W 005°48'15 5.7
2020-Jan-25 00:52N 54°58' W 005°26'617.5
2020-Jan-25 00:30N 55°01' W 005°15'13 3.2
2020-Jan-24 20:30N 54°54' W 005°34'816.7
2020-Jan-24 20:00N 54°51' W 005°48'0 0.2
2020-Jan-24 19:30N 54°51' W 005°48'22 4.7
2020-Jan-24 14:46N 55°00' W 005°13'1718.7
2020-Jan-24 13:53N 54°54' W 005°40'1 0.4
2020-Jan-24 11:51N 54°54' W 005°38'6 1.4
2020-Jan-24 07:25N 54°51' W 005°48'0 0.3
2020-Jan-24 06:56N 54°51' W 005°48'8 1.2
2020-Jan-24 00:29N 54°54' W 005°36'8 7.2
2020-Jan-23 23:24N 54°51' W 005°48'0 0.0
2020-Jan-23 21:58N 54°51' W 005°48'0 0.0
2020-Jan-23 16:31N 54°51' W 005°48'0 0.0
2020-Jan-23 15:30N 54°51' W 005°48'0 0.0
2020-Jan-23 10:38N 54°51' W 005°48'0 0.2
2020-Jan-23 09:47N 54°51' W 005°48'19 3.9
2020-Jan-23 05:02N 54°59' W 005°18'19 1.9
2020-Jan-22 18:58N 54°51' W 005°48'22 5.1
2020-Jan-22 14:44N 55°00' W 005°14'2212.1
2020-Jan-22 12:57N 54°51' W 005°48'22 5.3
2020-Jan-22 08:43N 55°01' W 005°13'717.9
2020-Jan-22 08:19N 54°57' W 005°24'15 1.8
2020-Jan-21 23:59N 54°51' W 005°48'21 6.0
2020-Jan-21 20:30N 55°00' W 005°15'21 2.1
2020-Jan-21 10:30N 54°51' W 005°48'0 0.0
2020-Jan-21 04:00N 54°51' W 005°48'0 0.2
2020-Jan-21 03:15N 54°51' W 005°48'0 0.0
2020-Jan-21 03:00N 54°51' W 005°48'8 4.6
2020-Jan-21 01:19N 54°56' W 005°37'1315.5
2020-Jan-21 00:30N 55°00' W 005°17'4 1.2
2020-Jan-20 20:58N 54°58' W 005°22'16 6.4
2020-Jan-20 18:27N 54°51' W 005°48'21 5.7
2020-Jan-20 14:42N 55°00' W 005°14'2117.7
2020-Jan-20 13:30N 54°51' W 005°48'5 3.5
2020-Jan-20 12:00N 54°54' W 005°40'1918.4
2020-Jan-20 10:59N 55°02' W 005°11'2 0.7
2020-Jan-20 08:51N 55°01' W 005°13'2212.0
2020-Jan-20 06:59N 54°51' W 005°48'0 0.0
2020-Jan-20 05:58N 54°51' W 005°48'3 7.2
2020-Jan-20 05:28N 54°53' W 005°43'19 4.4
2020-Jan-20 01:09N 55°00' W 005°12'618.8
2020-Jan-20 00:50N 54°58' W 005°22'1712.4
2020-Jan-19 23:30N 54°51' W 005°48'13 4.9
2020-Jan-19 20:56N 54°57' W 005°29'12 2.8
2020-Jan-19 16:29N 54°51' W 005°48'17 2.1
2020-Jan-19 08:24N 54°58' W 005°21'17 8.7
2020-Jan-19 06:25N 54°51' W 005°48'0 0.0
2020-Jan-19 04:28N 54°51' W 005°48'0 0.0
2020-Jan-19 03:28N 54°51' W 005°48'0 0.0
2020-Jan-19 00:58N 54°51' W 005°48'0 0.0
2020-Jan-19 00:13N 54°51' W 005°48'0 0.0
2020-Jan-18 22:00N 54°51' W 005°48'2013.2
2020-Jan-18 20:28N 55°00' W 005°16'1 0.4
2020-Jan-18 17:51N 54°60' W 005°15'  
Track history (hours):
 
Tides and Currents Weather Stations Pressure Air Temp Water Temp Dewpoint Dewpoint Depression Visibility Wind Speed Wind Dir Waves Ship Positions

European Causeway

Operator: P & O Irish Sea

Last reported at 2020-Jan-28 17:45 UTC. Time now 2020-Jan-28 18:58 UTC.
Position N 55°00' W 005°13'.

Length 145 m; draft 5.5 m.

Type: Passenger vessel. MMSI: 311027000.

Date/timePositionNaut miles runAvg speedWind from/ knotsBaromVisibWave heightAir tempDewpointWater temp
2020-Jan-28 17:45N 55°00' W 005°13'13 1.9
2020-Jan-28 11:00N 54°55' W 005°34'4 0.5
2020-Jan-28 04:20N 54°54' W 005°39'6 5.5
2020-Jan-28 03:20N 54°51' W 005°48'5 0.5
2020-Jan-27 17:51N 54°54' W 005°41'5 0.9
2020-Jan-27 12:27N 54°51' W 005°48'712.4
2020-Jan-27 11:54N 54°54' W 005°38'1417.1
2020-Jan-27 11:06N 55°00' W 005°16'20 4.0
2020-Jan-27 05:58N 54°51' W 005°48'22 4.7
2020-Jan-27 01:16N 55°00' W 005°13'22 7.7
2020-Jan-26 22:24N 54°51' W 005°48'0 0.0
2020-Jan-26 21:58N 54°51' W 005°48'711.5
2020-Jan-26 21:20N 54°55' W 005°37'14 3.9
2020-Jan-26 17:39N 54°60' W 005°14'21 9.9
2020-Jan-26 15:29N 54°51' W 005°48'1514.1
2020-Jan-26 14:26N 54°58' W 005°25'15 1.7
2020-Jan-26 05:30N 54°51' W 005°48'0 0.0
2020-Jan-25 22:09N 54°51' W 005°48'21 4.6
2020-Jan-25 17:41N 54°60' W 005°16'11 3.7
2020-Jan-25 14:46N 54°56' W 005°33'12 3.8
2020-Jan-25 11:42N 55°00' W 005°14'515.9
2020-Jan-25 11:22N 54°58' W 005°22'4 1.3
2020-Jan-25 08:00N 55°00' W 005°16'20 4.5
2020-Jan-25 03:28N 54°51' W 005°48'15 5.7
2020-Jan-25 00:52N 54°58' W 005°26'617.5
2020-Jan-25 00:30N 55°01' W 005°15'13 3.2
2020-Jan-24 20:30N 54°54' W 005°34'816.7
2020-Jan-24 20:00N 54°51' W 005°48'0 0.2
2020-Jan-24 19:30N 54°51' W 005°48'22 4.7
2020-Jan-24 14:46N 55°00' W 005°13'1718.7
2020-Jan-24 13:53N 54°54' W 005°40'1 0.4
2020-Jan-24 11:51N 54°54' W 005°38'6 1.4
2020-Jan-24 07:25N 54°51' W 005°48'0 0.3
2020-Jan-24 06:56N 54°51' W 005°48'8 1.2
2020-Jan-24 00:29N 54°54' W 005°36'8 7.2
2020-Jan-23 23:24N 54°51' W 005°48'0 0.0
2020-Jan-23 21:58N 54°51' W 005°48'0 0.0
2020-Jan-23 16:31N 54°51' W 005°48'0 0.0
2020-Jan-23 15:30N 54°51' W 005°48'0 0.0
2020-Jan-23 10:38N 54°51' W 005°48'0 0.2
2020-Jan-23 09:47N 54°51' W 005°48'19 3.9
2020-Jan-23 05:02N 54°59' W 005°18'19 1.9
2020-Jan-22 18:58N 54°51' W 005°48'22 5.1
2020-Jan-22 14:44N 55°00' W 005°14'2212.1
2020-Jan-22 12:57N 54°51' W 005°48'22 5.3
2020-Jan-22 08:43N 55°01' W 005°13'717.9
2020-Jan-22 08:19N 54°57' W 005°24'15 1.8
2020-Jan-21 23:59N 54°51' W 005°48'21 6.0
2020-Jan-21 20:30N 55°00' W 005°15'21 2.1
2020-Jan-21 10:30N 54°51' W 005°48'0 0.0
2020-Jan-21 04:00N 54°51' W 005°48'0 0.2
2020-Jan-21 03:15N 54°51' W 005°48'0 0.0
2020-Jan-21 03:00N 54°51' W 005°48'8 4.6
2020-Jan-21 01:19N 54°56' W 005°37'1315.5
2020-Jan-21 00:30N 55°00' W 005°17'4 1.2
2020-Jan-20 20:58N 54°58' W 005°22'16 6.4
2020-Jan-20 18:27N 54°51' W 005°48'21 5.7
2020-Jan-20 14:42N 55°00' W 005°14'2117.7
2020-Jan-20 13:30N 54°51' W 005°48'5 3.5
2020-Jan-20 12:00N 54°54' W 005°40'1918.4
2020-Jan-20 10:59N 55°02' W 005°11'2 0.7
2020-Jan-20 08:51N 55°01' W 005°13'2212.0
2020-Jan-20 06:59N 54°51' W 005°48'0 0.0
2020-Jan-20 05:58N 54°51' W 005°48'3 7.2
2020-Jan-20 05:28N 54°53' W 005°43'19 4.4
2020-Jan-20 01:09N 55°00' W 005°12'618.8
2020-Jan-20 00:50N 54°58' W 005°22'1712.4
2020-Jan-19 23:30N 54°51' W 005°48'13 4.9
2020-Jan-19 20:56N 54°57' W 005°29'12 2.8
2020-Jan-19 16:29N 54°51' W 005°48'17 2.1
2020-Jan-19 08:24N 54°58' W 005°21'17 8.7
2020-Jan-19 06:25N 54°51' W 005°48'0 0.0
2020-Jan-19 04:28N 54°51' W 005°48'0 0.0
2020-Jan-19 03:28N 54°51' W 005°48'0 0.0
2020-Jan-19 00:58N 54°51' W 005°48'0 0.0
2020-Jan-19 00:13N 54°51' W 005°48'0 0.0
2020-Jan-18 22:00N 54°51' W 005°48'2013.2
2020-Jan-18 20:28N 55°00' W 005°16'1 0.4
2020-Jan-18 17:51N 54°60' W 005°15'  

Dump ship's entire track history